Terminal Aerodrome Forecast
Issued by NWS

Home | Current Version | Previous Version | Graphics & Text | Print | Product List | Glossary On
Versions: 1 2 3 4 5 6 7 8 9 10 11 12 13 14 15 16 17 18
294
FTUS43 KMPX 201120
TAFAXN
TAF
KAXN 201120Z 2012/2112 14009KT P6SM BKN004
     FM201500 15010KT P6SM SCT004 BKN250
     FM201800 16011G17KT P6SM SCT250
     FM210200 15006KT P6SM FEW250=

USA.gov is the U.S. government's official web portal to all federal, state and local government web resources and services.